Boyne Falls, MI (49713)

6:53 PM EDT on August 27, 2016 (GMT -0400)
Boyne Mountain Resort | | Change Station

Elev 724 ft 45.16 °N, 84.93 °W | Updated 28 days ago

Cloudy
Cloudy
67 °F
Feels Like 67 °F
N
5
Wind Variable Wind from South
Gusts mph

Today
High -- | Low -- °F
--% Chance of Precip.
Yesterday
High -- | Low -- °F
Precip. -- in
Pressure 30.08 in
Visibility 10.0 miles
Clouds Overcast 900 ft
Dew Point 65 °F
Humidity 92%
Rainfall in
Snow Depth Not available.
6:55 AM 8:24 PM
Waning Crescent, 21% visible
METAR KGLR 272153Z AUTO 16010KT 10SM OVC009 20/17 A3009 RMK AO2 SLP186 T02000167
Pressure 30.08 in
Visibility 10.0 miles
Clouds Overcast 900 ft
Dew Point 65 °F
Humidity 92%
Rainfall in
Snow Depth Not available.
6:55 AM 8:24 PM
Waning Crescent, 21% visible
METAR KGLR 272153Z AUTO 16010KT 10SM OVC009 20/17 A3009 RMK AO2 SLP186 T02000167

10-Day Weather Forecast

Almanac

Astronomy

Aug. 27, 2016 Rise Set
Actual Time
Civil Twilight
Nautical Twilight
Astronomical Twilight
Moon
Length of Visible Light
Length of Day
Tomorrow will be .
, % of the Moon is Illuminated

Today's Extremes

State Highs State Lows

Community

WunderPhotos

Upload Photos

1,935,458 photos uploaded!

WunderBlog® & News

Nearby

Air Quality

  Air Quality AQ Index Pollutant
Not available.

Snow Depth

Station Depth Elevation

Earthquake Activity

City Distance Mag. Time & Date
Minimum magnitude displayed is 2.5.

Coastal Water Temperatures

Place Temperature

Stations

Nearby Weather Stations

Station Location Temp. Windchill Dew Point Humidity Wind Precip. Elev Updated Type
                   

Watches & Warnings

There are currently no watches in effect.